x

Northwestern Hawaii Two - 190nm Nw Of Kauai Is, Hi (51101) Wave Buoy

4:50pm - Sat 22nd Nov 2014 All times are HST. -10 hours from GMT.

  • Sig Wave height 6.2ft
  • Swell Direction
  • Peak Period 11s
  • Average Period 7s
  • Wind
    2mph, 7mph gusts
  • Sea Temp 81°f
  • Air Temp 79°f
  • Sea Pressure 1016.1mb
  • Northwestern Hawaii Two - 190nm Nw Of Kauai Is, Hi
  • Northwestern Hawaii Two - 190nm Nw Of Kauai Is, Hi

More Historic Weather Station data

Upgrade to MSW Pro to gain access to the past 30 days of data for over 8000 Wavebouys and Weather Stations around the globe.

Join Pro

Comparision Forecast

View Surf forecast
   
Sat 11/22 4:50pm 6ft 11s 7s 2 7 mph 1016.1mb 81f 79f
3:50pm 7ft 11s 8s 2 4 mph 1016mb 81f 79f
2:50pm 6ft 8s 8s 2 4 mph 1016mb 81f 79f
1:50pm 5.5ft 11s 8s  -  2 mph 1016.5mb 80f 80f
11:50am 6ft 8s 8s 4 7 mph 1018.3mb 80f 79f
10:50am 6ft 11s 8s 2 4 mph 1019mb 79f 79f
9:50am 6ft 11s 7s 2
mph
1018.8mb 79f 80f
8:50am 6ft 9s 7s 4 7 mph 1018.3mb 79f 79f
7:50am 6.5ft 8s 7s 4 7 mph 1018.2mb 79f 78f
6:50am 6.5ft 9s 7s 7 11 mph 1017.7mb 79f 78f
5:50am 6ft 9s 7s 9 11 mph 1017.3mb 79f 78f
4:50am 6.5ft 12s 7s 9 11 mph 1017.6mb 79f 78f
3:50am 6ft 11s 7s 11 13 mph 1017.7mb 79f 78f
2:50am 7.5ft 12s 8s 11 13 mph 1018mb 79f 78f
1:50am 6.5ft 11s 7s 11 13 mph 1018.3mb 79f 78f
12:50am 6ft 9s 7s 11 13 mph 1018.7mb 79f 78f
Fri 11/21 11:50pm 6ft 11s 7s 11 13 mph 1019.1mb 79f 78f
10:50pm 6.5ft 12s 8s 11 13 mph 1019.1mb 79f 79f
9:50pm 6ft 11s 7s 11 13 mph 1019mb 79f 78f
8:50pm 6ft 8s 7s 13 18 mph 1018.5mb 79f 78f
7:50pm 6ft 9s 7s 11 16 mph 1018mb 79f 78f
6:50pm 6.5ft 8s 7s 13 16 mph 1017.4mb 79f 78f
5:50pm 6.5ft 8s 7s 11 13 mph 1017.1mb 79f 78f
4:50pm 6.5ft 8s 7s 16 18 mph 1016.3mb 79f 78f
3:50pm 7ft 8s 7s 13 16 mph 1016.3mb 79f 78f
2:50pm 7ft 8s 7s 11 13 mph 1016.4mb 79f 78f
1:50pm 6.5ft 12s 7s 11 13 mph 1016.6mb 79f 78f
12:50pm 7ft 8s 7s 16 18 mph 1017.3mb 79f 78f
11:50am 6ft 8s 7s 16 18 mph 1018.1mb 79f 78f
10:50am 6ft 8s 7s 13 18 mph 1019mb 79f 78f
9:50am 6ft 8s 7s 9 11 mph 1019.4mb 79f 76f
8:50am 6ft 9s 7s 13 18 mph 1019.3mb 79f 76f
7:50am 6.5ft 9s 7s 13 16 mph 1019mb 79f 76f
6:50am 5.5ft 8s 7s 13 16 mph 1018.6mb 79f 77f
5:50am 6ft 8s 7s 11 13 mph 1018.2mb 79f 77f
4:50am 6ft 12s 7s 9 11 mph 1018.4mb 79f 77f
3:50am 6.5ft 8s 7s 7 9 mph 1018.8mb 79f 77f
2:50am 6ft 8s 7s 7 9 mph 1019.2mb 79f 77f
1:50am 6ft 8s 7s 9 13 mph 1019.6mb 79f 77f
12:50am 6.5ft 9s 7s 9
mph
1020mb 79f 78f
Thu 11/20 11:50pm 6ft 8s 7s 9 11 mph 1020.2mb 79f 78f
10:50pm 6ft 8s 7s 9 11 mph 1020.4mb 79f 78f
9:50pm 6ft 8s 7s 9 11 mph 1020.5mb 79f 78f
8:50pm 7ft 8s 7s 11 13 mph 1020.1mb 79f 78f
7:50pm 6.5ft 8s 7s 9
mph
1019.9mb 79f 78f
6:50pm 7ft 12s 7s 9 11 mph 1019.4mb 79f 78f
5:50pm 7ft 8s 7s 9 11 mph 1018.8mb 79f 79f
4:50pm 7ft 13s 7s 11 13 mph 1018.4mb 79f 79f
3:50pm 7ft 8s 7s 11 13 mph 1018.3mb 79f 79f
2:50pm 7ft 8s 7s 11 13 mph 1018.3mb 79f 79f
1:50pm 7ft 11s 7s 13 16 mph 1018.7mb 79f 79f
12:50pm 7.5ft 8s 7s 11 16 mph 1019.7mb 79f 79f
11:50am 8ft 8s 7s 13 16 mph 1020.5mb 79f 79f
10:50am 7.5ft 12s 7s 13 18 mph 1021.2mb 79f 79f
9:50am 7ft 13s 7s 16 20 mph 1021.2mb 79f 79f
8:50am 7.5ft 13s 7s 13 18 mph 1021mb 79f 79f
7:50am 7ft 13s 7s 13 18 mph 1020.8mb 79f 79f
6:50am 8ft 13s 7s 16 20 mph 1020.4mb 79f 78f
5:50am 7.5ft 12s 7s 18 22 mph 1019.8mb 79f 79f
4:50am 7.5ft 14s 6s 18 22 mph 1019.9mb 79f 79f
3:50am 7.5ft 13s 7s 16 18 mph 1020.2mb 79f 78f
2:50am 7ft 14s 6s 18 22 mph 1020.3mb 79f 78f
1:50am 7.5ft 8s 6s 18 22 mph 1020.6mb 79f 78f
12:50am 7ft 8s 6s 20 25 mph 1020.8mb 79f 78f
Wed 11/19 11:50pm 7ft 8s 6s 20 22 mph 1021.2mb 79f 78f
10:50pm 7ft 9s 6s 18 22 mph 1021.3mb 79f 78f
9:50pm 7ft 12s 7s 18 22 mph 1021.2mb 79f 78f
8:50pm 7ft 11s 7s 13 18 mph 1021.5mb 79f 77f
7:50pm 7ft 7s 6s 16 20 mph 1021.1mb 79f 78f
6:50pm 7ft 12s 7s 18 20 mph 1020.6mb 79f 78f
5:50pm 7ft 8s 7s 16 18 mph 1019.9mb 79f 78f
4:50pm 7ft 11s 7s 13 16 mph 1019.9mb 79f 79f
3:50pm 7ft 12s 7s 16 20 mph 1019.5mb 79f 79f
2:50pm 7ft 11s 7s 16 18 mph 1019.8mb 79f 79f
1:50pm 7ft 11s 6s 18 20 mph 1020mb 79f 79f
12:50pm 7ft 12s 6s 16 20 mph 1021mb 79f 79f
11:50am 6.5ft 12s 6s 16 20 mph 1021.6mb 79f 79f
10:50am 6ft 13s 6s 18 22 mph 1022.3mb 79f 79f
9:50am 6ft 13s 6s 13 16 mph 1022.5mb 79f 78f
8:50am 6ft 13s 6s 18 22 mph 1022.1mb 79f 77f
7:50am 6ft 13s 6s 16 18 mph 1021.6mb 79f 77f
6:50am 6ft 7s 6s 18 22 mph 1020.7mb 79f 77f
5:50am 5.5ft 13s 6s 20 25 mph 1020mb 79f 77f
4:50am 5.5ft 13s 6s 20 25 mph 1020.2mb 79f 77f